»·PEaware :: UAL241 KDCA-KBOS

UAL241 :: KDCA-KBOS

FLIGHT INFORMATION

Flight Status: Arrived
Operator:
United Airlines
More flights by this operator :: More flights under this callsign
Pilot: Anonymous 14085 (14085)
Aircraft: BOEING 737-800
(B738)
More flights by this aircraft type
Origin: KDCA Ronald Reagan Washington Natl
United States
Destination: KBOS Logan Intl
United States
More flights between these airports :: More routes between these airports
Route: SOOKI3 SWAnn BROss J42 RBV JFK ROBUC2
File this flight plan on PilotEdge
Remarks:
Altitude:
(Current/Filed)
37,000ft
Speed:
(Current/Filed)
480kts
Departed: 13-May-17 02:09 AM
Arrived: 13-May-17 03:06 AM
Distance/Time
Traveled:
346nm/0:57
Distance/Time
To Go:
Arrived

Flight Plot

Page will automatically refresh every two minutes.

Flight plan parsing failed; only flown route is shown


Map Options




Map Legend


Flown Route
Filed Route
Departure Airport
Arrival Airport
Navaid (VOR, NDB)
Fix

Horizontal Profiles

Position Reports

Time Latitude Longitude Heading Altitude Ground
Speed
13-May-17 02:01 38.845057 -77.046252 322 23ft 0kts
13-May-17 02:02 38.845057 -77.046252 322 23ft 0kts
13-May-17 02:03 38.845160 -77.046320 352 23ft 1kts
13-May-17 02:04 38.845407 -77.045006 73 23ft 13kts
13-May-17 02:05 38.845427 -77.042487 102 23ft 11kts
13-May-17 02:06 38.843644 -77.039997 117 23ft 9kts
13-May-17 02:07 38.842887 -77.037942 115 23ft 4kts
13-May-17 02:08 38.842832 -77.036913 0 23ft 0kts
13-May-17 02:09 38.842832 -77.036913 0 23ft 0kts
13-May-17 02:10 38.842832 -77.036913 0 23ft 0kts
13-May-17 02:11 38.847112 -77.037307 354 23ft 105kts
13-May-17 02:12 38.887117 -77.063524 313 2842ft 193kts
13-May-17 02:13 38.931911 -77.121889 314 5995ft 253kts
13-May-17 02:14 38.983350 -77.186872 312 9769ft 277kts
13-May-17 02:15 39.043135 -77.262712 311 12846ft 321kts
13-May-17 02:16 39.124430 -77.307871 357 16384ft 356kts
13-May-17 02:17 39.204628 -77.242171 53 19404ft 393kts
13-May-17 02:18 39.266787 -77.123753 53 22329ft 411kts
13-May-17 02:19 39.331414 -76.999638 53 24963ft 429kts
13-May-17 02:20 39.397919 -76.871469 52 27719ft 434kts
13-May-17 02:21 39.464507 -76.742585 52 30265ft 434kts
13-May-17 02:22 39.530917 -76.613438 51 32454ft 434kts
13-May-17 02:23 39.598137 -76.482501 51 32965ft 462kts
13-May-17 02:24 39.672864 -76.336642 52 32986ft 522kts
13-May-17 02:25 39.737550 -76.209564 53 32964ft 525kts
13-May-17 02:26 39.817416 -76.052045 53 32967ft 528kts
13-May-17 02:27 39.896943 -75.893932 53 32968ft 526kts
13-May-17 02:28 39.976225 -75.735765 53 32971ft 526kts
13-May-17 02:29 40.055613 -75.576562 53 32973ft 527kts
13-May-17 02:30 40.133686 -75.419194 53 32973ft 527kts
13-May-17 02:31 40.206514 -75.271745 54 32988ft 527kts
13-May-17 02:32 40.284125 -75.114051 54 32973ft 530kts
13-May-17 02:33 40.362332 -74.953809 54 32967ft 528kts
13-May-17 02:34 40.440783 -74.792467 54 32992ft 528kts
13-May-17 02:35 40.519394 -74.629998 54 32998ft 528kts
13-May-17 02:36 40.596892 -74.468938 54 33026ft 528kts
13-May-17 02:37 40.666257 -74.324132 55 33019ft 529kts
13-May-17 02:38 40.740864 -74.167670 55 33011ft 530kts
13-May-17 02:39 40.817771 -74.005328 55 32995ft 529kts
13-May-17 02:40 40.894900 -73.841776 55 33023ft 529kts
13-May-17 02:41 40.971373 -73.678719 55 33026ft 529kts
13-May-17 02:42 41.048062 -73.514316 55 33028ft 529kts
13-May-17 02:43 41.122877 -73.353034 55 33042ft 529kts
13-May-17 02:44 41.195002 -73.196795 56 33029ft 518kts
13-May-17 02:45 41.267005 -73.039925 56 33047ft 507kts
13-May-17 02:46 41.339677 -72.880866 56 33049ft 506kts
13-May-17 02:47 41.411356 -72.722943 55 33051ft 502kts
13-May-17 02:48 41.483028 -72.564410 55 32951ft 505kts
13-May-17 02:49 41.553626 -72.407577 55 30340ft 481kts
13-May-17 02:50 41.619256 -72.260948 56 27757ft 453kts
13-May-17 02:51 41.681785 -72.120525 56 25142ft 430kts
13-May-17 02:52 41.740827 -71.987415 57 22554ft 411kts
13-May-17 02:53 41.797103 -71.860109 57 19435ft 386kts
13-May-17 02:54 41.849926 -71.740137 58 16355ft 367kts
13-May-17 02:55 41.900001 -71.625921 59 13292ft 350kts
13-May-17 02:56 41.947797 -71.516639 60 10384ft 330kts
13-May-17 02:57 41.991845 -71.415588 62 7906ft 304kts
13-May-17 02:58 42.031553 -71.323888 63 6031ft 267kts
13-May-17 02:59 42.065763 -71.244625 64 4792ft 219kts
13-May-17 03:00 42.093640 -71.179735 64 3975ft 181kts
13-May-17 03:01 42.118003 -71.126579 49 3965ft 174kts
13-May-17 03:02 42.163006 -71.102001 24 3951ft 163kts
13-May-17 03:03 42.202367 -71.083358 22 3205ft 152kts
13-May-17 03:04 42.243146 -71.066861 18 2607ft 155kts
13-May-17 03:05 42.282753 -71.045108 22 1871ft 153kts
13-May-17 03:06 42.322938 -71.025373 20 814ft 149kts
13-May-17 03:07 42.340674 -70.991854 69 626ft 133kts
13-May-17 03:08 42.366005 -71.008407 283 29ft 36kts
13-May-17 03:09 42.368368 -71.013291 311 29ft 17kts
13-May-17 03:10 42.372667 -71.020446 317 29ft 22kts
13-May-17 03:11 42.374084 -71.022304 314 29ft 0kts
13-May-17 03:12 42.353398 -70.989288 308 213ft 163kts
13-May-17 03:13 42.338254 -71.002061 74 562ft 134kts
13-May-17 03:14 42.365122 -71.005729 307 29ft 37kts
13-May-17 03:15 42.367747 -71.012547 333 29ft 13kts
13-May-17 03:16 42.371916 -71.018914 304 29ft 25kts
13-May-17 03:17 42.374054 -71.022262 315 29ft 2kts
13-May-17 03:18 42.374084 -71.022304 314 29ft 0kts
13-May-17 03:19 42.374084 -71.022304 314 29ft 0kts
13-May-17 03:20 42.374084 -71.022304 314 29ft 0kts
13-May-17 03:21 42.374084 -71.022304 314 29ft 0kts
13-May-17 03:22 42.374084 -71.022304 314 29ft 0kts
13-May-17 03:23 42.374084 -71.022304 314 29ft 0kts

Navigation Log

Ident Type
Flight plan parsing failed, navigation log unavailable